Woolrich, Pennsylvania
Current Conditions -  °F | °C
As of 6:54 AM on Friday 31 Oct 2014 (Local Time) from KIPT Reporting Station
Overcast Overcast  
Wind Chill: 37°   Ceiling: 6000
Heat Index: 37°   Visibility: 10mi
Dew Point: 31°   Wind: 3mph
Humidity: 79%   Direction: 350°N
Pressure: 30.01"   Gusts: NA
Location:  41.19°N, 77.38°W
Report Text: KIPT 311054Z 35003KT 10SM OVC060 03/M01 A3001 RMK AO2 SLP166 T00281006
Loading
Personal Weather Stations






























Interactive Weather Map
Tropical Storm Tracking
New forecast layout! Learn more

10-Day Weather Forecast

Advertisements
Track Severe Weather on mobile